sensor_id;sensor_type;location;lat;lon;timestamp;pressure;altitude;pressure_sealevel;temperature;humidity
55191;BME280;41070;50.360;18.742;2022-09-16T03:16:17;97741.60;;;12.14;86.48
55191;BME280;41070;50.360;18.742;2022-09-16T03:21:39;97738.92;;;12.01;86.38
55191;BME280;41070;50.360;18.742;2022-09-16T03:24:27;97739.95;;;11.98;86.47
55191;BME280;41070;50.360;18.742;2022-09-16T03:27:08;97736.88;;;11.96;86.52
55191;BME280;41070;50.360;18.742;2022-09-16T03:29:48;97738.95;;;11.96;86.44
55191;BME280;41070;50.360;18.742;2022-09-16T03:32:26;97737.85;;;11.93;86.24
55191;BME280;41070;50.360;18.742;2022-09-16T03:35:07;97738.95;;;11.89;86.09
55191;BME280;41070;50.360;18.742;2022-09-16T03:37:36;97743.83;;;11.85;86.11
55191;BME280;41070;50.360;18.742;2022-09-16T03:40:11;97743.13;;;11.84;86.15
55191;BME280;41070;50.360;18.742;2022-09-16T03:42:41;97740.83;;;11.84;86.04
55191;BME280;41070;50.360;18.742;2022-09-16T03:45:20;97741.28;;;11.84;86.00
55191;BME280;41070;50.360;18.742;2022-09-16T03:47:49;97740.13;;;11.83;85.82
55191;BME280;41070;50.360;18.742;2022-09-16T03:50:18;97739.66;;;11.82;85.93
55191;BME280;41070;50.360;18.742;2022-09-16T03:52:46;97732.37;;;11.81;85.73
55191;BME280;41070;50.360;18.742;2022-09-16T03:55:14;97730.70;;;11.81;85.74
55191;BME280;41070;50.360;18.742;2022-09-16T03:57:42;97731.99;;;11.81;85.61
55191;BME280;41070;50.360;18.742;2022-09-16T04:00:29;97727.38;;;11.79;85.58
55191;BME280;41070;50.360;18.742;2022-09-16T04:03:18;97728.73;;;11.76;85.34
55191;BME280;41070;50.360;18.742;2022-09-16T04:06:06;97729.04;;;11.75;85.48
55191;BME280;41070;50.360;18.742;2022-09-16T04:08:54;97725.38;;;11.77;85.70
55191;BME280;41070;50.360;18.742;2022-09-16T04:11:30;97722.80;;;11.81;85.78
55191;BME280;41070;50.360;18.742;2022-09-16T04:13:58;97724.16;;;11.88;86.07
55191;BME280;41070;50.360;18.742;2022-09-16T04:16:27;97727.29;;;11.95;86.14
55191;BME280;41070;50.360;18.742;2022-09-16T04:19:30;97725.18;;;12.00;86.21
55191;BME280;41070;50.360;18.742;2022-09-16T04:21:58;97728.52;;;12.05;86.29
55191;BME280;41070;50.360;18.742;2022-09-16T04:24:33;97729.25;;;12.10;86.35
55191;BME280;41070;50.360;18.742;2022-09-16T04:27:09;97724.06;;;12.14;86.54
55191;BME280;41070;50.360;18.742;2022-09-16T04:30:11;97731.46;;;12.20;86.57
55191;BME280;41070;50.360;18.742;2022-09-16T04:32:41;97722.90;;;12.24;86.64
55191;BME280;41070;50.360;18.742;2022-09-16T04:35:24;97727.46;;;12.29;86.77
55191;BME280;41070;50.360;18.742;2022-09-16T06:43:14;97734.87;;;13.92;83.66
55191;BME280;41070;50.360;18.742;2022-09-16T06:45:42;97741.70;;;13.89;83.87
55191;BME280;41070;50.360;18.742;2022-09-16T06:48:09;97739.02;;;13.85;83.54
55191;BME280;41070;50.360;18.742;2022-09-16T06:50:37;97736.86;;;13.85;83.56
55191;BME280;41070;50.360;18.742;2022-09-16T06:53:23;97736.16;;;13.92;83.33
55191;BME280;41070;50.360;18.742;2022-09-16T06:55:51;97732.17;;;13.98;83.08
55191;BME280;41070;50.360;18.742;2022-09-16T09:41:06;97782.98;;;16.43;69.85
55191;BME280;41070;50.360;18.742;2022-09-16T09:43:41;97785.69;;;16.49;69.40
55191;BME280;41070;50.360;18.742;2022-09-16T09:46:33;97783.31;;;16.48;68.38
55191;BME280;41070;50.360;18.742;2022-09-16T09:49:26;97782.36;;;16.43;67.82
55191;BME280;41070;50.360;18.742;2022-09-16T09:51:59;97782.68;;;16.41;67.75
55191;BME280;41070;50.360;18.742;2022-09-16T09:54:33;97783.54;;;16.39;67.45
55191;BME280;41070;50.360;18.742;2022-09-16T09:57:35;97782.84;;;16.33;67.37
55191;BME280;41070;50.360;18.742;2022-09-16T10:00:11;97778.30;;;16.31;68.11
55191;BME280;41070;50.360;18.742;2022-09-16T10:02:42;97780.38;;;16.32;67.40
55191;BME280;41070;50.360;18.742;2022-09-16T10:07:47;97776.95;;;16.19;66.86
55191;BME280;41070;50.360;18.742;2022-09-16T10:10:20;97775.84;;;16.22;67.08
55191;BME280;41070;50.360;18.742;2022-09-16T10:12:48;97772.41;;;16.35;67.27
55191;BME280;41070;50.360;18.742;2022-09-16T10:15:27;97773.17;;;16.51;66.39
55191;BME280;41070;50.360;18.742;2022-09-16T10:17:58;97774.75;;;16.71;66.58
55191;BME280;41070;50.360;18.742;2022-09-16T10:20:29;97769.48;;;16.88;65.73
55191;BME280;41070;50.360;18.742;2022-09-16T10:23:01;97767.45;;;16.97;65.68
55191;BME280;41070;50.360;18.742;2022-09-16T10:25:31;97773.48;;;17.09;64.84
55191;BME280;41070;50.360;18.742;2022-09-16T10:28:04;97770.23;;;17.16;64.86
55191;BME280;41070;50.360;18.742;2022-09-16T10:30:53;97766.29;;;17.22;64.56
55191;BME280;41070;50.360;18.742;2022-09-16T10:33:30;97763.40;;;17.24;63.78
55191;BME280;41070;50.360;18.742;2022-09-16T10:36:06;97758.45;;;17.25;63.08
55191;BME280;41070;50.360;18.742;2022-09-16T10:38:40;97754.38;;;17.35;62.59
55191;BME280;41070;50.360;18.742;2022-09-16T10:41:14;97754.27;;;17.38;61.60
55191;BME280;41070;50.360;18.742;2022-09-16T10:43:49;97750.95;;;17.27;60.10
55191;BME280;41070;50.360;18.742;2022-09-16T10:46:17;97750.05;;;17.36;60.67
55191;BME280;41070;50.360;18.742;2022-09-16T10:48:47;97747.69;;;17.44;59.48
55191;BME280;41070;50.360;18.742;2022-09-16T10:51:30;97748.68;;;17.40;60.29
55191;BME280;41070;50.360;18.742;2022-09-16T10:54:00;97757.03;;;17.39;60.52
55191;BME280;41070;50.360;18.742;2022-09-16T10:56:31;97753.79;;;17.33;59.54
55191;BME280;41070;50.360;18.742;2022-09-16T10:59:10;97748.68;;;17.22;58.69
55191;BME280;41070;50.360;18.742;2022-09-16T11:07:17;97739.39;;;17.07;59.89
55191;BME280;41070;50.360;18.742;2022-09-16T11:10:08;97731.13;;;17.11;60.14
55191;BME280;41070;50.360;18.742;2022-09-16T11:13:08;97732.94;;;17.22;60.41
55191;BME280;41070;50.360;18.742;2022-09-16T11:15:52;97734.51;;;17.30;58.48
55191;BME280;41070;50.360;18.742;2022-09-16T11:18:39;97726.15;;;17.43;59.90
55191;BME280;41070;50.360;18.742;2022-09-16T11:35:11;97712.67;;;17.12;57.80
55191;BME280;41070;50.360;18.742;2022-09-16T11:41:20;97716.77;;;16.73;58.07
55191;BME280;41070;50.360;18.742;2022-09-16T11:44:17;97709.66;;;16.66;58.36
55191;BME280;41070;50.360;18.742;2022-09-16T11:47:12;97699.23;;;16.82;58.52
55191;BME280;41070;50.360;18.742;2022-09-16T11:50:07;97701.09;;;17.02;58.10
55191;BME280;41070;50.360;18.742;2022-09-16T11:53:41;97701.39;;;17.18;58.11
55191;BME280;41070;50.360;18.742;2022-09-16T11:56:31;97701.00;;;17.30;57.04
55191;BME280;41070;50.360;18.742;2022-09-16T12:05:51;97687.33;;;17.24;56.61
55191;BME280;41070;50.360;18.742;2022-09-16T12:08:53;97688.38;;;17.38;57.07
55191;BME280;41070;50.360;18.742;2022-09-16T12:11:55;97682.92;;;17.61;57.89
55191;BME280;41070;50.360;18.742;2022-09-16T12:14:39;97684.84;;;17.87;57.00
55191;BME280;41070;50.360;18.742;2022-09-16T12:17:25;97684.11;;;17.99;55.09
55191;BME280;41070;50.360;18.742;2022-09-16T12:20:02;97684.39;;;18.04;55.25
55191;BME280;41070;50.360;18.742;2022-09-16T12:22:39;97688.29;;;18.03;54.89
55191;BME280;41070;50.360;18.742;2022-09-16T12:25:28;97687.61;;;17.97;55.09
55191;BME280;41070;50.360;18.742;2022-09-16T12:31:20;97680.46;;;17.56;55.56
55191;BME280;41070;50.360;18.742;2022-09-16T12:33:58;97684.89;;;17.39;55.48
55191;BME280;41070;50.360;18.742;2022-09-16T12:36:38;97693.48;;;17.15;55.57
55191;BME280;41070;50.360;18.742;2022-09-16T12:39:12;97702.58;;;17.00;55.72
55191;BME280;41070;50.360;18.742;2022-09-16T12:53:44;97704.72;;;16.32;60.24
55191;BME280;41070;50.360;18.742;2022-09-16T12:57:04;97709.47;;;16.20;60.86
55191;BME280;41070;50.360;18.742;2022-09-16T13:03:14;97703.90;;;16.13;62.08
55191;BME280;41070;50.360;18.742;2022-09-16T13:05:49;97704.40;;;16.18;62.32
55191;BME280;41070;50.360;18.742;2022-09-16T13:08:28;97698.45;;;16.27;62.39
55191;BME280;41070;50.360;18.742;2022-09-16T13:11:27;97699.69;;;16.26;62.50
55191;BME280;41070;50.360;18.742;2022-09-16T13:13:59;97696.90;;;16.12;62.40
55191;BME280;41070;50.360;18.742;2022-09-16T13:16:35;97702.19;;;15.98;62.54
55191;BME280;41070;50.360;18.742;2022-09-16T13:19:33;97702.36;;;15.88;62.98
55191;BME280;41070;50.360;18.742;2022-09-16T13:25:07;97701.61;;;15.76;63.72
55191;BME280;41070;50.360;18.742;2022-09-16T13:28:02;97706.40;;;15.72;63.80
55191;BME280;41070;50.360;18.742;2022-09-16T13:30:51;97704.13;;;15.65;64.23
55191;BME280;41070;50.360;18.742;2022-09-16T13:33:27;97702.49;;;15.58;64.59
55191;BME280;41070;50.360;18.742;2022-09-16T13:36:30;97700.05;;;15.44;65.32
55191;BME280;41070;50.360;18.742;2022-09-16T13:39:10;97700.20;;;15.30;65.75
55191;BME280;41070;50.360;18.742;2022-09-16T13:41:42;97702.56;;;15.24;65.40
55191;BME280;41070;50.360;18.742;2022-09-16T13:44:38;97701.64;;;15.23;65.62
55191;BME280;41070;50.360;18.742;2022-09-16T13:49:52;97703.28;;;15.32;65.93
55191;BME280;41070;50.360;18.742;2022-09-16T13:52:34;97699.17;;;15.35;65.97
55191;BME280;41070;50.360;18.742;2022-09-16T13:55:49;97697.27;;;15.35;66.14
55191;BME280;41070;50.360;18.742;2022-09-16T13:58:27;97699.47;;;15.37;66.15
55191;BME280;41070;50.360;18.742;2022-09-16T14:01:14;97694.32;;;15.37;66.43
55191;BME280;41070;50.360;18.742;2022-09-16T14:12:17;97674.26;;;15.75;66.13
55191;BME280;41070;50.360;18.742;2022-09-16T14:14:49;97673.93;;;15.87;65.81
55191;BME280;41070;50.360;18.742;2022-09-16T14:17:25;97672.84;;;15.96;65.57
55191;BME280;41070;50.360;18.742;2022-09-16T14:19:57;97669.30;;;16.05;65.51
55191;BME280;41070;50.360;18.742;2022-09-16T14:22:25;97666.34;;;16.07;64.60
55191;BME280;41070;50.360;18.742;2022-09-16T14:24:54;97668.68;;;16.13;64.55
55191;BME280;41070;50.360;18.742;2022-09-16T14:27:31;97661.50;;;16.21;64.35
55191;BME280;41070;50.360;18.742;2022-09-16T14:30:12;97661.38;;;16.09;63.67
55191;BME280;41070;50.360;18.742;2022-09-16T14:32:42;97660.42;;;16.06;64.33
55191;BME280;41070;50.360;18.742;2022-09-16T14:35:15;97658.52;;;16.03;63.36
55191;BME280;41070;50.360;18.742;2022-09-16T14:37:46;97653.16;;;16.07;63.46
55191;BME280;41070;50.360;18.742;2022-09-16T14:40:21;97651.46;;;16.14;63.21
55191;BME280;41070;50.360;18.742;2022-09-16T14:42:53;97641.95;;;16.17;62.94
55191;BME280;41070;50.360;18.742;2022-09-16T14:45:22;97645.28;;;16.24;63.19
55191;BME280;41070;50.360;18.742;2022-09-16T14:47:52;97646.64;;;16.25;62.90
55191;BME280;41070;50.360;18.742;2022-09-16T14:50:24;97647.96;;;16.31;62.96
55191;BME280;41070;50.360;18.742;2022-09-16T14:55:27;97645.13;;;16.51;63.19
55191;BME280;41070;50.360;18.742;2022-09-16T14:57:57;97642.39;;;16.60;63.11
55191;BME280;41070;50.360;18.742;2022-09-16T15:00:41;97641.52;;;16.67;63.24
55191;BME280;41070;50.360;18.742;2022-09-16T15:03:18;97641.73;;;16.70;62.96
55191;BME280;41070;50.360;18.742;2022-09-16T15:05:48;97637.73;;;16.68;62.81
55191;BME280;41070;50.360;18.742;2022-09-16T15:10:46;97636.27;;;16.73;62.72
55191;BME280;41070;50.360;18.742;2022-09-16T15:13:15;97635.80;;;16.80;62.51
55191;BME280;41070;50.360;18.742;2022-09-16T15:15:48;97638.80;;;16.82;62.49
55191;BME280;41070;50.360;18.742;2022-09-16T15:18:34;97634.55;;;16.84;62.87
55191;BME280;41070;50.360;18.742;2022-09-16T15:23:51;97633.71;;;17.01;62.96
55191;BME280;41070;50.360;18.742;2022-09-16T15:29:12;97631.58;;;17.03;62.68
55191;BME280;41070;50.360;18.742;2022-09-16T15:31:40;97625.73;;;17.01;63.01
55191;BME280;41070;50.360;18.742;2022-09-16T15:39:54;97626.08;;;17.03;62.99
55191;BME280;41070;50.360;18.742;2022-09-16T15:42:24;97623.59;;;17.04;63.16
55191;BME280;41070;50.360;18.742;2022-09-16T15:44:57;97622.69;;;17.14;63.32
55191;BME280;41070;50.360;18.742;2022-09-16T15:50:27;97618.16;;;17.07;62.92
55191;BME280;41070;50.360;18.742;2022-09-16T15:55:55;97612.77;;;16.90;62.79
55191;BME280;41070;50.360;18.742;2022-09-16T16:06:11;97618.46;;;16.54;64.20
55191;BME280;41070;50.360;18.742;2022-09-16T16:08:50;97618.52;;;16.49;64.19
55191;BME280;41070;50.360;18.742;2022-09-16T16:11:20;97619.05;;;16.45;64.49
55191;BME280;41070;50.360;18.742;2022-09-16T16:13:48;97617.55;;;16.41;64.70
55191;BME280;41070;50.360;18.742;2022-09-16T16:16:16;97618.51;;;16.38;65.08
55191;BME280;41070;50.360;18.742;2022-09-16T16:18:45;97621.06;;;16.37;65.24
55191;BME280;41070;50.360;18.742;2022-09-16T16:21:14;97620.46;;;16.35;65.61
55191;BME280;41070;50.360;18.742;2022-09-16T16:23:42;97618.39;;;16.35;65.89
55191;BME280;41070;50.360;18.742;2022-09-16T16:26:10;97614.09;;;16.32;66.50
55191;BME280;41070;50.360;18.742;2022-09-16T16:29:01;97619.44;;;16.25;66.87
55191;BME280;41070;50.360;18.742;2022-09-16T16:31:31;97614.30;;;16.22;67.33
55191;BME280;41070;50.360;18.742;2022-09-16T16:34:00;97613.83;;;16.16;67.36
55191;BME280;41070;50.360;18.742;2022-09-16T16:36:28;97612.80;;;16.11;67.79
55191;BME280;41070;50.360;18.742;2022-09-16T16:38:55;97612.57;;;16.11;67.86
55191;BME280;41070;50.360;18.742;2022-09-16T16:41:23;97616.73;;;16.04;68.07
55191;BME280;41070;50.360;18.742;2022-09-16T16:43:51;97614.40;;;15.99;68.34
55191;BME280;41070;50.360;18.742;2022-09-16T16:46:19;97613.93;;;16.00;68.76
55191;BME280;41070;50.360;18.742;2022-09-16T16:48:47;97614.88;;;15.97;69.11
55191;BME280;41070;50.360;18.742;2022-09-16T16:51:15;97617.19;;;15.90;69.45
55191;BME280;41070;50.360;18.742;2022-09-16T16:53:46;97618.88;;;15.91;69.71
55191;BME280;41070;50.360;18.742;2022-09-16T16:56:14;97617.36;;;15.94;70.17
55191;BME280;41070;50.360;18.742;2022-09-16T16:58:42;97616.44;;;15.94;70.41
55191;BME280;41070;50.360;18.742;2022-09-16T17:01:13;97614.40;;;15.91;70.43
55191;BME280;41070;50.360;18.742;2022-09-16T17:03:43;97613.42;;;15.89;70.63
55191;BME280;41070;50.360;18.742;2022-09-16T17:06:11;97608.92;;;15.84;70.66
55191;BME280;41070;50.360;18.742;2022-09-16T17:08:39;97604.20;;;15.79;70.86
55191;BME280;41070;50.360;18.742;2022-09-16T17:11:09;97606.07;;;15.74;70.96
55191;BME280;41070;50.360;18.742;2022-09-16T17:13:38;97613.04;;;15.69;71.01
55191;BME280;41070;50.360;18.742;2022-09-16T17:16:07;97616.84;;;15.58;71.06
55191;BME280;41070;50.360;18.742;2022-09-16T17:18:37;97613.70;;;15.46;71.18
55191;BME280;41070;50.360;18.742;2022-09-16T17:21:07;97613.04;;;15.34;71.37
55191;BME280;41070;50.360;18.742;2022-09-16T17:23:36;97616.45;;;15.19;71.35
55191;BME280;41070;50.360;18.742;2022-09-16T17:26:06;97619.39;;;15.06;71.59
55191;BME280;41070;50.360;18.742;2022-09-16T17:28:35;97623.16;;;14.95;72.05
55191;BME280;41070;50.360;18.742;2022-09-16T17:31:16;97626.52;;;14.86;72.39
55191;BME280;41070;50.360;18.742;2022-09-16T17:33:46;97629.27;;;14.75;72.83
55191;BME280;41070;50.360;18.742;2022-09-16T17:36:15;97630.45;;;14.68;72.78
55191;BME280;41070;50.360;18.742;2022-09-16T17:38:44;97636.73;;;14.51;72.94
55191;BME280;41070;50.360;18.742;2022-09-16T17:41:14;97635.60;;;14.44;73.42
55191;BME280;41070;50.360;18.742;2022-09-16T17:43:42;97636.52;;;14.47;73.53
55191;BME280;41070;50.360;18.742;2022-09-16T17:46:13;97638.42;;;14.52;73.20
55191;BME280;41070;50.360;18.742;2022-09-16T17:48:45;97641.46;;;14.42;72.04
55191;BME280;41070;50.360;18.742;2022-09-16T17:51:13;97646.91;;;14.26;72.00
55191;BME280;41070;50.360;18.742;2022-09-16T17:53:43;97649.15;;;14.14;71.73
55191;BME280;41070;50.360;18.742;2022-09-16T17:56:13;97645.50;;;13.97;71.45
55191;BME280;41070;50.360;18.742;2022-09-16T17:58:44;97647.29;;;13.85;71.23
55191;BME280;41070;50.360;18.742;2022-09-16T18:01:18;97649.54;;;13.80;71.54
55191;BME280;41070;50.360;18.742;2022-09-16T18:03:49;97651.90;;;13.80;71.53
55191;BME280;41070;50.360;18.742;2022-09-16T18:06:26;97656.14;;;13.73;71.58
55191;BME280;41070;50.360;18.742;2022-09-16T18:08:54;97653.77;;;13.69;72.20
55191;BME280;41070;50.360;18.742;2022-09-16T18:11:21;97658.29;;;13.72;72.42
55191;BME280;41070;50.360;18.742;2022-09-16T18:13:58;97662.84;;;13.72;72.38
55191;BME280;41070;50.360;18.742;2022-09-16T18:16:27;97662.36;;;13.71;72.11
55191;BME280;41070;50.360;18.742;2022-09-16T18:18:57;97661.36;;;13.73;72.08
55191;BME280;41070;50.360;18.742;2022-09-16T18:21:26;97661.59;;;13.78;72.38
55191;BME280;41070;50.360;18.742;2022-09-16T18:23:56;97659.96;;;13.84;72.75
55191;BME280;41070;50.360;18.742;2022-09-16T18:26:24;97662.81;;;13.87;72.86
55191;BME280;41070;50.360;18.742;2022-09-16T18:28:53;97660.48;;;13.93;72.97
55191;BME280;41070;50.360;18.742;2022-09-16T18:31:22;97659.64;;;13.98;73.18
55191;BME280;41070;50.360;18.742;2022-09-16T18:33:51;97664.86;;;14.03;73.41
55191;BME280;41070;50.360;18.742;2022-09-16T18:36:21;97673.16;;;14.02;73.51
55191;BME280;41070;50.360;18.742;2022-09-16T18:38:55;97671.11;;;13.90;73.30
55191;BME280;41070;50.360;18.742;2022-09-16T18:41:27;97668.80;;;13.80;73.29
55191;BME280;41070;50.360;18.742;2022-09-16T18:44:01;97673.20;;;13.71;73.15
55191;BME280;41070;50.360;18.742;2022-09-16T18:46:36;97680.64;;;13.68;73.19
55191;BME280;41070;50.360;18.742;2022-09-16T18:49:05;97688.79;;;13.65;73.27
55191;BME280;41070;50.360;18.742;2022-09-16T18:51:35;97687.85;;;13.60;72.73
55191;BME280;41070;50.360;18.742;2022-09-16T18:54:10;97681.95;;;13.62;72.81
55191;BME280;41070;50.360;18.742;2022-09-16T18:56:39;97691.55;;;13.68;73.06
